Flight Track Log - Related Links

Times and Time Zones

All times are in EDT time to prevent confusion due to time zone crossing. See the ASQ6115 flight status page for this flight to view local times or setup timezone preferences in your user account.

Time Position Orientation Groundspeed Altitude Reporting Facility
EDT Latitude Longitude Course Direction KTS MPH feet Rate Location/Type
Wed 03:45:08 PM 26.1614 -98.2261 22° Northeast 164 189 1,000  Level Houston Center
Wed 03:45:57 PM 26.1681 -98.1881 79° East 188 216 2,600 2,035 Climbing Houston Center
Wed 03:47:03 PM 26.2233 -98.1342 41° Northeast 241 277 4,900 1,883 Climbing Houston Center
Wed 03:48:14 PM 26.2839 -98.0722 43° Northeast 251 289 6,900 1,881 Climbing Houston Center
Wed 03:49:00 PM 26.5000 -98.0750 24° Northeast  Level FlightAware Approximate
Wed 03:49:17 PM 26.3444 -98.0044 45° Northeast 282 325 9,100  Level Houston Center
Wed 03:50:00 PM 26.5665 -98.0427 22° Northeast  Level FlightAware Approximate
Wed 03:50:19 PM 26.4031 -97.9375 46° Northeast 297 342 10,400  Level Houston Center
Wed 03:51:21 PM 26.4694 -97.8622 45° Northeast 331 381 11,400 1,113 Climbing Houston Center
Wed 03:52:23 PM 26.5508 -97.7836 41° Northeast 360 414 12,700 1,210 Climbing Houston Center
Wed 03:53:25 PM 26.6500 -97.7569 14° North 369 425 13,900 1,258 Climbing Houston Center
Wed 03:54:27 PM 26.7569 -97.7306 12° North 366 421 15,300 1,258 Climbing Houston Center
Wed 03:55:29 PM 26.8558 -97.7044 13° North 382 440 16,500 1,210 Climbing Houston Center
Wed 03:56:31 PM 26.9625 -97.6786 12° North 366 421 17,800 1,152 Climbing Houston Center
Wed 03:57:34 PM 27.0617 -97.6539 13° North 367 422 18,900 905 Climbing Houston Center
Wed 03:58:37 PM 27.1497 -97.6333 12° North 366 421 19,700 968 Climbing Houston Center
Wed 03:59:38 PM 27.2700 -97.6022 13° North 368 423 20,900 1,024 Climbing Houston Center
Wed 04:00:40 PM 27.3767 -97.5756 13° North 384 442 21,800 919 Climbing Houston Center
Wed 04:01:42 PM 27.4833 -97.5497 12° North 390 449 22,800 919 Climbing Houston Center
Wed 04:02:44 PM 27.5914 -97.5225 13° North 395 455 23,700 919 Climbing Houston Center
Wed 04:03:46 PM 27.6944 -97.4778 21° North 399 459 24,700 1,008 Climbing Houston Center
Wed 04:04:49 PM 27.8075 -97.4000 31° Northeast 400 460 25,800 1,008 Climbing Houston Center
Wed 04:05:51 PM 27.9031 -97.3347 31° Northeast 401 461 26,800 532 Climbing Houston Center
Wed 04:06:53 PM 28.0061 -97.2633 31° Northeast 407 468 26,900 48 Climbing Houston Center
Wed 04:07:55 PM 28.1094 -97.1911 32° Northeast 428 493 26,900  Level Houston Center
Wed 04:08:57 PM 28.2156 -97.1150 32° Northeast 444 511 26,900  Level Houston Center
Wed 04:09:59 PM 28.3244 -97.0394 31° Northeast 455 524 26,900  Level Houston Center
Wed 04:11:01 PM 28.4342 -96.9617 32° Northeast 462 532 26,900  Level Houston Center
Wed 04:12:03 PM 28.5667 -96.8683 32° Northeast 467 537 26,900  Level Houston Center
Wed 04:13:06 PM 28.6769 -96.7906 32° Northeast 469 540 26,900 -528 Level Houston Center
Wed 04:14:08 PM 28.7853 -96.7128 32° Northeast 465 535 25,800 -1,258 Descending Houston Center
Wed 04:15:10 PM 28.8950 -96.6353 32° Northeast 467 537 24,300 -919 Descending Houston Center
Wed 04:16:12 PM 29.0000 -96.5594 32° Northeast 454 522 23,900 -581 Descending Houston Center
Wed 04:17:14 PM 29.1278 -96.4683 32° Northeast 455 524 23,100 -1,065 Descending Houston Center
Wed 04:18:16 PM 29.2325 -96.3947 32° Northeast 446 513 21,700 -1,485 Descending Houston Center
Wed 04:18:55 PM 29.3025 -96.3447 32° Northeast 436 502 20,600 -1,935 Descending Houston Center
Wed 04:19:18 PM 29.3319 -96.3222 34° Northeast 432 497 19,700 -2,965 Descending Houston Center
Wed 04:20:20 PM 29.4217 -96.2578 32° Northeast 394 453 16,400 -3,429 Descending Houston Center
Wed 04:21:10 PM 29.5044 -96.2000 31° Northeast 364 419 13,300 -2,378 Descending Houston Center
Wed 04:22:11 PM 29.5703 -96.1133 49° Northeast 343 395 12,000 -776 Descending Houston Center
Wed 04:23:06 PM 29.6153 -96.0267 59° Northeast 335 386 11,800 -395 Descending Houston Center
Wed 04:23:27 PM 29.6272 -96.0033 60° Northeast 337 388 11,500 -1,075 Descending Houston Center
Wed 04:24:13 PM 29.6675 -95.9272 59° Northeast 336 387 10,600 -1,161 Descending Houston Center
Wed 04:24:29 PM 29.6792 -95.9019 62° Northeast 337 388 10,300 -643 Descending Houston Center
Wed 04:25:09 PM 29.7103 -95.8406 60° Northeast 336 387 10,000 -290 Descending Houston Center
Wed 04:25:31 PM 29.7256 -95.8097 60° Northeast 335 386 10,000  Level Houston Center
Wed 04:26:10 PM 29.7567 -95.7483 60° Northeast 335 386 10,000  Level Houston Center
Wed 04:26:33 PM 29.7728 -95.7164 60° Northeast 336 387 10,000 -295 Level Houston Center
Wed 04:27:11 PM 29.8014 -95.6589 60° Northeast 316 364 9,700 -774 Descending Houston Center
Wed 04:27:35 PM 29.8150 -95.6319 60° Northeast 307 353 9,200 -1,745 Descending Houston Center
Wed 04:28:06 PM 29.8369 -95.5875 60° Northeast 273 314 8,100 -1,742 Descending Houston Center
Wed 04:28:37 PM 29.8533 -95.5550 60° Northeast 280 322 7,400 -1,727 Descending Houston Center
Wed 04:29:12 PM 29.8814 -95.5003 59° Northeast 272 313 6,200 -1,333 Descending Houston Center
Wed 04:29:40 PM 29.8911 -95.4792 62° Northeast 273 314 6,000 -97 Descending Houston Center
Wed 04:30:14 PM 29.8997 -95.4233 80° East 250 288 6,100  Climbing Houston Center
Wed 04:30:42 PM 29.8978 -95.3867 93° East 243 280 6,000 -98 Descending Houston Center
Wed 04:31:15 PM 29.8969 -95.3467 91° East 240 276 6,000  Level Houston Center
Wed 04:31:44 PM 29.8964 -95.3097 91° East 238 274 6,000 -492 Level Houston Center
Wed 04:32:16 PM 29.8958 -95.2672 91° East 240 276 5,500 -1,065 Descending Houston Center
Wed 04:32:46 PM 29.8969 -95.2339 88° East 236 272 4,900 -1,475 Descending Houston Center
Wed 04:33:17 PM 29.8972 -95.1900 90° East 231 266 4,000 -1,452 Descending Houston Center
Wed 04:33:48 PM 29.9058 -95.1622 70° East 240 276 3,400 -1,475 Descending Houston Center
Wed 04:34:18 PM 29.9408 -95.1628 359° North 225 259 2,500 -1,800 Descending Houston Center

Login

Don't have an account? Register now (free) for customized features, flight alerts, and more!